createdAt,value
2018-01-13T00:01:02.062Z,16.33
2018-01-13T00:03:29.719Z,19.43
2018-01-13T00:05:57.342Z,16.30
2018-01-13T00:08:24.932Z,14.80
2018-01-13T00:10:52.582Z,16.17
2018-01-13T00:13:20.172Z,17.73
2018-01-13T00:15:47.809Z,13.37
2018-01-13T00:18:15.424Z,19.53
2018-01-13T00:20:43.777Z,13.17
2018-01-13T00:23:12.172Z,18.17
2018-01-13T00:25:39.797Z,16.00
2018-01-13T00:28:07.401Z,16.43
2018-01-13T00:30:35.795Z,13.60
2018-01-13T00:33:03.388Z,13.53
2018-01-13T00:35:31.021Z,18.43
2018-01-13T00:37:58.727Z,16.87
2018-01-13T00:40:26.328Z,18.93
2018-01-13T00:42:54.721Z,17.27
2018-01-13T00:45:22.312Z,15.70
2018-01-13T00:47:49.936Z,17.97
2018-01-13T00:50:18.291Z,17.03
2018-01-13T00:52:45.924Z,14.17
2018-01-13T00:55:13.568Z,15.33
2018-01-13T01:00:15.453Z,15.37
2018-01-13T01:02:43.113Z,17.37
2018-01-13T01:05:10.704Z,14.30
2018-01-13T01:07:38.333Z,14.20
2018-01-13T01:10:05.925Z,16.30
2018-01-13T01:12:35.056Z,15.00
2018-01-13T01:15:02.647Z,13.80
2018-01-13T01:17:30.280Z,12.93
2018-01-13T01:19:57.925Z,16.60
2018-01-13T01:22:25.505Z,14.60
2018-01-13T01:24:53.123Z,18.80
2018-01-13T01:27:20.716Z,14.93
2018-01-13T01:29:49.104Z,14.87
2018-01-13T01:32:17.460Z,15.90
2018-01-13T01:34:45.826Z,13.33
2018-01-13T01:37:13.454Z,13.80
2018-01-13T01:39:41.048Z,14.50
2018-01-13T01:42:08.669Z,16.80
2018-01-13T01:44:36.259Z,16.13
2018-01-13T01:47:03.882Z,18.73
2018-01-13T01:49:31.484Z,19.17
2018-01-13T01:51:59.119Z,13.03
2018-01-13T01:54:26.748Z,17.10
2018-01-13T01:56:54.352Z,14.97
2018-01-13T01:59:21.977Z,17.10
2018-01-13T02:01:49.583Z,17.47
2018-01-13T02:04:17.191Z,16.37
2018-01-13T02:06:44.788Z,14.90
2018-01-13T02:09:12.412Z,19.53
2018-01-13T02:11:40.021Z,16.00
2018-01-13T02:14:07.649Z,12.07
2018-01-13T02:16:35.243Z,17.47
2018-01-13T02:19:02.864Z,18.60
2018-01-13T02:21:30.452Z,16.27
2018-01-13T02:23:58.108Z,19.50
2018-01-13T02:26:25.706Z,19.23
2018-01-13T02:28:53.325Z,15.77
2018-01-13T02:31:20.923Z,17.57
2018-01-13T02:33:48.549Z,20.30
2018-01-13T02:36:16.144Z,17.87
2018-01-13T02:38:43.769Z,17.13
2018-01-13T02:41:11.357Z,17.70
2018-01-13T02:43:39.005Z,15.23
2018-01-13T02:46:06.629Z,15.63
2018-01-13T02:48:34.228Z,17.87
2018-01-13T02:51:01.852Z,17.17
2018-01-13T02:53:29.448Z,19.87
2018-01-13T02:55:57.041Z,17.87
2018-01-13T02:58:25.439Z,16.50
2018-01-13T03:00:53.796Z,18.50
2018-01-13T03:03:21.427Z,19.50
2018-01-13T03:05:49.016Z,20.20
2018-01-13T03:08:16.641Z,14.00
2018-01-13T03:10:44.239Z,21.40
2018-01-13T03:13:11.860Z,19.63
2018-01-13T03:15:39.448Z,19.63
2018-01-13T03:18:07.065Z,17.57
2018-01-13T03:20:34.665Z,21.40
2018-01-13T03:23:02.298Z,21.30
2018-01-13T03:25:29.893Z,18.97
2018-01-13T03:27:57.530Z,22.40
2018-01-13T03:30:25.132Z,17.30
2018-01-13T03:32:53.525Z,17.30
2018-01-13T03:35:21.892Z,19.47
2018-01-13T03:37:50.280Z,18.70
2018-01-13T03:40:18.635Z,22.23
2018-01-13T03:42:47.759Z,20.70
2018-01-13T03:45:15.353Z,21.43
2018-01-13T03:47:42.974Z,22.03
2018-01-13T03:50:11.332Z,21.53
2018-01-13T03:52:38.952Z,21.17
2018-01-13T03:55:06.588Z,14.07
2018-01-13T03:57:34.212Z,19.43
2018-01-13T04:00:01.828Z,16.90
2018-01-13T04:02:29.447Z,18.10
2018-01-13T04:04:57.820Z,19.80
2018-01-13T04:07:26.216Z,22.83
2018-01-13T04:09:54.586Z,18.87
2018-01-13T04:12:22.982Z,20.10
2018-01-13T04:14:51.064Z,19.23
2018-01-13T04:17:18.661Z,18.10
2018-01-13T04:19:46.340Z,20.67
2018-01-13T04:22:13.938Z,19.57
2018-01-13T04:24:41.564Z,15.50
2018-01-13T04:27:09.160Z,12.50
2018-01-13T04:29:36.784Z,16.30
2018-01-13T04:32:05.904Z,16.00
2018-01-13T04:34:34.266Z,17.60
2018-01-13T04:37:02.656Z,18.67
2018-01-13T04:39:31.016Z,18.90
2018-01-13T04:41:58.649Z,21.90
2018-01-13T04:44:26.247Z,20.83
2018-01-13T04:46:54.612Z,14.17
2018-01-13T04:49:22.342Z,19.40
2018-01-13T04:51:49.928Z,18.57
2018-01-13T04:54:17.524Z,14.53
2018-01-13T04:56:45.912Z,17.80
2018-01-13T04:59:13.508Z,17.43
2018-01-13T05:01:41.132Z,20.10
2018-01-13T05:04:08.732Z,21.80
2018-01-13T05:06:36.328Z,20.50
2018-01-13T05:09:04.732Z,17.87
2018-01-13T05:11:32.334Z,17.40
2018-01-13T05:13:59.948Z,24.33
2018-01-13T05:16:27.544Z,19.27
2018-01-13T05:18:55.172Z,19.60
2018-01-13T05:21:23.532Z,18.60
2018-01-13T05:23:51.923Z,24.77
2018-01-13T05:26:20.275Z,18.67
2018-01-13T05:28:47.891Z,18.80
2018-01-13T05:31:15.591Z,15.27
2018-01-13T05:33:43.843Z,16.03
2018-01-13T05:36:11.490Z,20.00
2018-01-13T05:38:39.096Z,18.10
2018-01-13T05:41:06.711Z,21.50
2018-01-13T05:43:34.321Z,17.50
2018-01-13T05:46:02.734Z,20.90
2018-01-13T05:48:30.324Z,13.57
2018-01-13T05:50:57.953Z,18.13
2018-01-13T05:53:25.552Z,25.90
2018-01-13T05:55:53.152Z,16.33
2018-01-13T05:58:21.548Z,16.50
2018-01-13T06:00:49.914Z,18.10
2018-01-13T06:03:18.273Z,21.03
2018-01-13T06:05:45.900Z,22.40
2018-01-13T06:08:13.506Z,19.57
2018-01-13T06:10:42.611Z,20.47
2018-01-13T06:13:10.996Z,23.30
2018-01-13T06:15:39.363Z,17.07
2018-01-13T06:18:07.759Z,25.57
2018-01-13T06:20:36.124Z,21.67
2018-01-13T06:23:04.516Z,20.00
2018-01-13T06:25:32.117Z,17.00
2018-01-13T06:27:59.745Z,21.70
2018-01-13T06:30:27.361Z,19.83
2018-01-13T06:32:54.968Z,20.50
2018-01-13T06:35:22.588Z,22.17
2018-01-13T06:37:50.181Z,22.77
2018-01-13T06:40:18.564Z,24.70
2018-01-13T06:42:46.255Z,22.03
2018-01-13T06:45:13.880Z,24.40
2018-01-13T06:47:42.256Z,26.10
2018-01-13T06:50:10.640Z,25.23
2018-01-13T06:52:38.241Z,24.03
2018-01-13T06:55:05.880Z,25.97
2018-01-13T06:57:33.472Z,27.00
2018-01-13T07:00:01.081Z,27.27
2018-01-13T07:02:29.464Z,21.97
2018-01-13T07:04:57.067Z,27.23
2018-01-13T07:07:24.688Z,27.40
2018-01-13T07:09:52.283Z,26.67
2018-01-13T07:12:19.904Z,21.37
2018-01-13T07:14:48.272Z,19.37
2018-01-13T07:17:16.676Z,30.80
2018-01-13T07:19:44.269Z,28.50
2018-01-13T07:22:11.892Z,23.70
2018-01-13T07:24:39.487Z,18.57
2018-01-13T07:27:07.105Z,26.90
2018-01-13T07:29:34.719Z,25.23
2018-01-13T07:32:02.468Z,28.13
2018-01-13T07:34:30.059Z,25.00
2018-01-13T07:36:57.682Z,22.07
2018-01-13T07:39:25.273Z,29.23
2018-01-13T07:41:54.408Z,29.20
2018-01-13T07:44:22.028Z,20.27
2018-01-13T07:46:51.162Z,21.83
2018-01-13T07:49:18.760Z,28.43
2018-01-13T07:51:46.385Z,28.77
2018-01-13T07:54:13.983Z,27.77
2018-01-13T07:56:41.579Z,27.50
2018-01-13T07:59:09.960Z,26.17
2018-01-13T08:01:37.558Z,22.93
2018-01-13T08:04:05.192Z,21.97
2018-01-13T08:06:33.573Z,26.53
2018-01-13T08:09:01.989Z,24.00
2018-01-13T08:11:29.577Z,24.50
2018-01-13T08:13:57.226Z,24.73
2018-01-13T08:16:24.825Z,23.53
2018-01-13T08:18:52.457Z,26.73
2018-01-13T08:21:20.055Z,26.27
2018-01-13T08:23:48.447Z,23.27
2018-01-13T08:26:16.807Z,22.97
2018-01-13T08:28:45.231Z,24.17
2018-01-13T08:31:12.829Z,20.90
2018-01-13T08:33:40.448Z,25.40
2018-01-13T08:36:08.035Z,26.30
2018-01-13T08:38:35.662Z,23.43
2018-01-13T08:41:03.256Z,33.50
2018-01-13T08:43:30.912Z,25.77
2018-01-13T08:45:58.505Z,27.37
2018-01-13T08:48:27.642Z,26.93
2018-01-13T08:50:55.236Z,28.93
2018-01-13T08:53:22.886Z,25.83
2018-01-13T08:55:50.480Z,29.03
2018-01-13T08:58:18.113Z,28.00
2018-01-13T09:00:45.730Z,23.57
2018-01-13T09:03:13.374Z,28.07
2018-01-13T09:05:41.768Z,21.67
2018-01-13T09:08:10.140Z,29.20
2018-01-13T09:10:38.533Z,31.00
2018-01-13T09:13:06.130Z,26.00
2018-01-13T09:15:33.768Z,27.37
2018-01-13T09:18:01.361Z,24.03
2018-01-13T09:20:28.992Z,23.97
2018-01-13T09:22:56.583Z,26.40
2018-01-13T09:25:24.208Z,25.27
2018-01-13T09:27:51.806Z,29.10
2018-01-13T09:30:19.436Z,22.00
2018-01-13T09:32:47.033Z,24.23
2018-01-13T09:35:14.661Z,24.80
2018-01-13T09:37:42.256Z,24.40
2018-01-13T09:40:10.645Z,31.03
2018-01-13T09:42:38.361Z,27.90
2018-01-13T09:45:05.913Z,29.57
2018-01-13T09:47:33.546Z,25.30
2018-01-13T09:50:01.937Z,24.50
2018-01-13T09:52:30.296Z,24.83
2018-01-13T09:54:58.661Z,19.93
2018-01-13T09:57:26.295Z,26.33
2018-01-13T09:59:53.892Z,32.90
2018-01-13T10:02:22.268Z,15.77
2018-01-13T10:04:49.901Z,30.80
2018-01-13T10:07:17.510Z,26.67
2018-01-13T10:09:45.896Z,24.23
2018-01-13T10:12:13.496Z,27.40
2018-01-13T10:14:41.136Z,20.10
2018-01-13T10:17:08.723Z,26.70
2018-01-13T10:19:36.361Z,19.40
2018-01-13T10:22:04.047Z,30.33
2018-01-13T10:24:31.685Z,29.00
2018-01-13T10:26:59.280Z,27.50
2018-01-13T10:29:26.911Z,26.57
2018-01-13T10:31:54.684Z,24.50
2018-01-13T10:34:23.192Z,23.47
2018-01-13T10:36:50.796Z,28.00
2018-01-13T10:39:18.413Z,27.93
2018-01-13T10:41:46.772Z,29.27
2018-01-13T10:44:14.400Z,31.00
2018-01-13T10:46:42.034Z,21.50
2018-01-13T10:49:10.393Z,24.50
2018-01-13T10:51:38.030Z,22.37
2018-01-13T10:54:05.625Z,32.70
2018-01-13T10:56:33.258Z,26.97
2018-01-13T10:59:00.856Z,28.17
2018-01-13T11:01:29.221Z,25.60
2018-01-13T11:03:56.851Z,23.53
2018-01-13T11:06:24.461Z,23.60
2018-01-13T11:08:53.049Z,25.47
2018-01-13T11:11:21.961Z,30.50
2018-01-13T11:13:49.739Z,25.60
2018-01-13T11:16:17.344Z,29.17
2018-01-13T11:18:45.024Z,27.80
2018-01-13T11:21:13.388Z,27.60
2018-01-13T11:23:41.788Z,24.23
2018-01-13T11:26:10.148Z,28.33
2018-01-13T11:28:37.772Z,23.13
2018-01-13T11:31:05.364Z,22.20
2018-01-13T11:33:33.756Z,29.60
2018-01-13T11:36:02.113Z,14.57
2018-01-13T11:38:29.844Z,21.53
2018-01-13T11:40:57.440Z,23.90
2018-01-13T11:43:25.044Z,22.60
2018-01-13T11:45:52.682Z,25.03
2018-01-13T11:48:21.063Z,21.67
2018-01-13T11:50:49.456Z,26.37
2018-01-13T11:53:17.052Z,24.17
2018-01-13T11:55:44.712Z,23.57
2018-01-13T11:58:12.321Z,28.20
2018-01-13T12:00:40.709Z,20.57
2018-01-13T12:03:09.071Z,29.70
2018-01-13T12:05:36.709Z,25.50
2018-01-13T12:08:04.316Z,24.83
2018-01-13T12:10:31.932Z,29.73
2018-01-13T12:12:59.535Z,20.17
2018-01-13T12:15:27.158Z,23.37
2018-01-13T12:17:54.760Z,23.90
2018-01-13T12:20:22.380Z,29.47
2018-01-13T12:22:49.988Z,25.13
2018-01-13T12:25:17.621Z,19.03
2018-01-13T12:27:45.980Z,28.03
2018-01-13T12:30:13.610Z,26.37
2018-01-13T12:32:41.207Z,24.37
2018-01-13T12:35:08.833Z,28.27
2018-01-13T12:37:36.424Z,22.27
2018-01-13T12:40:04.812Z,23.50
2018-01-13T12:42:32.412Z,17.57
2018-01-13T12:45:00.051Z,25.50
2018-01-13T12:47:28.410Z,21.00
2018-01-13T12:49:57.578Z,24.50
2018-01-13T12:52:25.169Z,18.97
2018-01-13T12:54:52.795Z,24.57
2018-01-13T12:57:20.392Z,24.27
2018-01-13T12:59:48.022Z,24.93
2018-01-13T13:02:15.623Z,14.23
2018-01-13T13:04:43.983Z,22.23
2018-01-13T13:07:13.125Z,24.30
2018-01-13T13:09:40.716Z,25.50
2018-01-13T13:12:08.341Z,19.57
2018-01-13T13:14:35.932Z,21.23
2018-01-13T13:17:03.566Z,10.80
2018-01-13T13:19:31.256Z,14.70
2018-01-13T13:21:58.891Z,23.00
2018-01-13T13:24:26.484Z,13.43
2018-01-13T13:26:54.119Z,22.63
2018-01-13T13:29:21.709Z,19.17
2018-01-13T13:31:49.342Z,16.63
2018-01-13T13:34:16.928Z,19.80
2018-01-13T13:36:44.516Z,22.17
2018-01-13T13:39:12.143Z,22.47
2018-01-13T13:41:39.734Z,17.00
2018-01-13T13:44:07.509Z,19.90
2018-01-13T13:46:35.880Z,20.67
2018-01-13T13:49:03.514Z,21.57
2018-01-13T13:51:31.114Z,18.97
2018-01-13T13:53:59.472Z,19.23
2018-01-13T13:56:27.091Z,19.30
2018-01-13T13:58:54.725Z,19.40
2018-01-13T14:01:28.711Z,17.60
2018-01-13T14:03:50.709Z,19.33
2018-01-13T14:06:18.333Z,19.43
2018-01-13T14:08:45.934Z,13.37
2018-01-13T14:11:13.557Z,20.47
2018-01-13T14:13:41.149Z,17.20
2018-01-13T14:16:08.798Z,21.67
2018-01-13T14:18:36.394Z,15.83
2018-01-13T14:21:03.992Z,14.63
2018-01-13T14:23:31.624Z,19.03
2018-01-13T14:25:59.220Z,20.43
2018-01-13T14:28:26.840Z,15.30
2018-01-13T14:30:55.196Z,17.07
2018-01-13T14:33:22.793Z,14.47
2018-01-13T14:35:50.412Z,15.40
2018-01-13T14:38:18.003Z,18.43
2018-01-13T14:40:45.624Z,17.27
2018-01-13T14:43:13.220Z,14.77
2018-01-13T14:45:40.836Z,17.50
2018-01-13T14:48:08.423Z,16.87
2018-01-13T14:50:36.071Z,17.47
2018-01-13T14:53:03.961Z,18.60
2018-01-13T14:55:31.576Z,14.90
2018-01-13T14:57:59.188Z,18.07
2018-01-13T15:00:26.813Z,18.30
2018-01-13T15:02:54.412Z,16.80
2018-01-13T15:05:22.036Z,19.10
2018-01-13T15:07:49.682Z,15.20
2018-01-13T15:10:17.301Z,16.07
2018-01-13T15:12:46.396Z,16.67
2018-01-13T15:15:14.768Z,14.37
2018-01-13T15:17:43.198Z,14.97
2018-01-13T15:20:10.881Z,11.90
2018-01-13T15:22:38.485Z,16.97
2018-01-13T15:25:06.147Z,12.27
2018-01-13T15:27:34.525Z,13.77
2018-01-13T15:30:02.253Z,12.80
2018-01-13T15:32:29.852Z,13.00
2018-01-13T15:34:57.485Z,11.03
2018-01-13T15:37:25.076Z,14.30
2018-01-13T15:39:53.605Z,11.87
2018-01-13T15:42:21.200Z,14.87
2018-01-13T15:44:49.596Z,15.13
2018-01-13T15:47:17.184Z,16.07
2018-01-13T15:49:44.806Z,16.30
2018-01-13T15:52:12.406Z,15.20
2018-01-13T15:54:40.036Z,17.00
2018-01-13T15:57:07.755Z,13.33
2018-01-13T15:59:35.385Z,11.30
2018-01-13T16:02:02.997Z,12.90
2018-01-13T16:04:30.862Z,15.17
2018-01-13T16:06:58.463Z,15.07
2018-01-13T16:09:26.853Z,15.40
2018-01-13T16:11:54.490Z,12.83
2018-01-13T16:14:22.137Z,12.63
2018-01-13T16:16:49.727Z,16.13
2018-01-13T16:19:18.113Z,13.73
2018-01-13T16:21:45.708Z,14.67
2018-01-13T16:24:13.328Z,10.10
2018-01-13T16:26:40.934Z,12.60
2018-01-13T16:29:08.616Z,13.60
2018-01-13T16:31:36.239Z,10.20
2018-01-13T16:34:03.869Z,11.23
2018-01-13T16:36:31.466Z,14.67
2018-01-13T16:38:59.076Z,12.20
2018-01-13T16:41:26.981Z,11.00
2018-01-13T16:43:54.708Z,10.00
2018-01-13T16:46:22.384Z,12.13
2018-01-13T16:48:50.802Z,14.00
2018-01-13T16:51:18.576Z,11.60
2018-01-13T16:53:46.191Z,9.50
2018-01-13T16:56:14.576Z,12.03
2018-01-13T16:58:42.181Z,9.10
2018-01-13T17:01:10.224Z,8.60
2018-01-13T17:03:38.121Z,13.97
2018-01-13T17:06:05.995Z,10.97
2018-01-13T17:08:33.854Z,12.07
2018-01-13T17:11:01.720Z,12.07
2018-01-13T17:13:29.584Z,12.10
2018-01-13T17:15:57.463Z,9.77
2018-01-13T17:18:25.328Z,12.60
2018-01-13T17:20:53.186Z,12.23
2018-01-13T17:23:21.064Z,9.10
2018-01-13T17:25:49.746Z,13.93
2018-01-13T17:28:17.611Z,11.87
2018-01-13T17:30:45.588Z,8.33
2018-01-13T17:33:13.449Z,7.00
2018-01-13T17:35:41.317Z,9.63
2018-01-13T17:38:09.185Z,9.23
2018-01-13T17:40:37.113Z,10.07
2018-01-13T17:43:05.014Z,9.63
2018-01-13T17:45:32.862Z,10.87
2018-01-13T17:48:00.784Z,11.87
2018-01-13T17:50:29.435Z,12.50
2018-01-13T17:52:57.308Z,10.43
2018-01-13T17:55:25.165Z,8.80
2018-01-13T17:57:53.036Z,8.97
2018-01-13T18:00:20.898Z,8.63
2018-01-13T18:02:48.770Z,11.03
2018-01-13T18:05:16.633Z,11.03
2018-01-13T18:07:44.600Z,11.40
2018-01-13T18:10:12.468Z,8.17
2018-01-13T18:12:40.338Z,13.23
2018-01-13T18:15:08.213Z,8.80
2018-01-13T18:17:36.078Z,14.47
2018-01-13T18:20:05.469Z,11.00
2018-01-13T18:22:33.364Z,10.93
2018-01-13T18:25:01.202Z,13.43
2018-01-13T18:27:29.067Z,13.93
2018-01-13T18:29:56.941Z,10.13
2018-01-13T18:32:24.806Z,12.70
2018-01-13T18:34:52.666Z,13.40
2018-01-13T18:37:20.542Z,11.30
2018-01-13T18:39:48.407Z,15.67
2018-01-13T18:42:16.278Z,11.37
2018-01-13T18:44:44.142Z,10.60
2018-01-13T18:47:12.007Z,13.20
2018-01-13T18:49:39.877Z,9.27
2018-01-13T18:52:07.735Z,12.13
2018-01-13T18:54:35.613Z,13.27
2018-01-13T18:57:04.223Z,11.30
2018-01-13T18:59:32.884Z,8.83
2018-01-13T19:02:01.986Z,13.67
2018-01-13T19:04:29.628Z,11.97
2018-01-13T19:06:57.249Z,13.40
2018-01-13T19:09:24.848Z,12.20
2018-01-13T19:11:52.484Z,13.97
2018-01-13T19:14:20.071Z,11.47
2018-01-13T19:16:47.664Z,13.30
2018-01-13T19:19:16.066Z,13.23
2018-01-13T19:21:43.672Z,14.03
2018-01-13T19:24:11.295Z,11.10
2018-01-13T19:26:39.142Z,11.20
2018-01-13T19:29:07.794Z,11.77
2018-01-13T19:31:35.417Z,11.90
2018-01-13T19:34:03.060Z,10.67
2018-01-13T19:36:30.653Z,11.60
2018-01-13T19:38:58.256Z,11.90
2018-01-13T19:41:25.981Z,9.70
2018-01-13T19:43:53.593Z,11.13
2018-01-13T19:46:21.990Z,11.00
2018-01-13T19:48:49.586Z,7.77
2018-01-13T19:51:17.346Z,8.73
2018-01-13T19:53:44.977Z,12.23
2018-01-13T19:56:12.579Z,10.83
2018-01-13T19:58:40.336Z,12.17
2018-01-13T20:01:08.001Z,10.03
2018-01-13T20:03:35.872Z,9.20
2018-01-13T20:06:03.837Z,12.33
2018-01-13T20:08:31.610Z,8.37
2018-01-13T20:10:59.478Z,9.57
2018-01-13T20:13:27.105Z,7.10
2018-01-13T20:15:54.698Z,10.33
2018-01-13T20:18:22.284Z,9.07
2018-01-13T20:20:49.906Z,9.37
2018-01-13T20:23:17.569Z,9.60
2018-01-13T20:25:45.157Z,8.80
2018-01-13T20:28:12.797Z,8.90
2018-01-13T20:30:40.396Z,9.87
2018-01-13T20:33:08.817Z,9.80
2018-01-13T20:35:36.411Z,10.03
2018-01-13T20:38:03.996Z,9.90
2018-01-13T20:40:32.472Z,9.57
2018-01-13T20:43:00.832Z,10.70
2018-01-13T20:45:28.464Z,11.93
2018-01-13T20:47:56.061Z,7.07
2018-01-13T20:50:23.690Z,8.30
2018-01-13T20:52:51.282Z,10.30
2018-01-13T20:55:20.423Z,9.57
2018-01-13T20:57:48.297Z,9.23
2018-01-13T21:00:15.921Z,9.90
2018-01-13T21:02:44.277Z,8.77
2018-01-13T21:05:13.410Z,9.13
2018-01-13T21:07:41.004Z,9.10
2018-01-13T21:10:08.621Z,7.53
2018-01-13T21:12:36.976Z,8.90
2018-01-13T21:15:06.100Z,9.57
2018-01-13T21:17:34.473Z,7.83
2018-01-13T21:20:02.867Z,8.23
2018-01-13T21:22:30.467Z,8.40
2018-01-13T21:24:58.112Z,9.17
2018-01-13T21:27:25.705Z,8.93
2018-01-13T21:29:53.637Z,8.40
2018-01-13T21:32:21.530Z,5.70
2018-01-13T21:34:49.398Z,6.83
2018-01-13T21:37:17.023Z,8.97
2018-01-13T21:39:44.618Z,8.33
2018-01-13T21:42:12.250Z,10.13
2018-01-13T21:44:39.853Z,9.73
2018-01-13T21:47:07.469Z,9.60
2018-01-13T21:49:35.092Z,7.20
2018-01-13T21:52:03.472Z,6.37
2018-01-13T21:54:31.850Z,6.27
2018-01-13T21:57:00.237Z,9.23
2018-01-13T21:59:27.852Z,8.23
2018-01-13T22:01:55.466Z,5.13
2018-01-13T22:04:24.004Z,8.07
2018-01-13T22:06:51.625Z,9.73
2018-01-13T22:09:19.214Z,6.63
2018-01-13T22:11:47.027Z,7.43
2018-01-13T22:14:15.407Z,6.00
2018-01-13T22:16:43.801Z,7.17
2018-01-13T22:19:11.398Z,7.80
2018-01-13T22:21:39.019Z,6.33
2018-01-13T22:24:06.624Z,8.07
2018-01-13T22:26:34.214Z,8.53
2018-01-13T22:29:01.841Z,7.10
2018-01-13T22:31:29.429Z,5.20
2018-01-13T22:33:57.056Z,7.90
2018-01-13T22:36:24.652Z,7.27
2018-01-13T22:38:52.290Z,6.30
2018-01-13T22:41:19.908Z,7.43
2018-01-13T22:43:47.509Z,5.97
2018-01-13T22:46:15.133Z,6.67
2018-01-13T22:48:42.730Z,6.10
2018-01-13T22:51:10.353Z,7.80
2018-01-13T22:53:37.955Z,7.60
2018-01-13T22:56:05.596Z,5.77
2018-01-13T22:58:33.197Z,6.20
2018-01-13T23:01:00.788Z,9.17
2018-01-13T23:03:28.418Z,5.73
2018-01-13T23:05:57.527Z,9.10
2018-01-13T23:08:25.945Z,8.77
2018-01-13T23:10:53.540Z,6.80
2018-01-13T23:13:21.129Z,7.20
2018-01-13T23:15:49.513Z,7.63
2018-01-13T23:18:17.874Z,6.37
2018-01-13T23:20:46.266Z,4.77
2018-01-13T23:23:14.631Z,8.43
2018-01-13T23:25:42.222Z,6.60
2018-01-13T23:28:10.603Z,7.17
2018-01-13T23:30:38.204Z,6.23
2018-01-13T23:33:05.837Z,7.17
2018-01-13T23:35:33.433Z,4.93
2018-01-13T23:38:01.036Z,8.00
2018-01-13T23:40:29.417Z,8.73
2018-01-13T23:42:57.777Z,8.13
2018-01-13T23:45:26.185Z,8.93
2018-01-13T23:47:53.783Z,8.20
2018-01-13T23:50:21.380Z,6.03
2018-01-13T23:52:49.047Z,8.53
2018-01-13T23:55:17.416Z,9.47
2018-01-13T23:57:45.063Z,8.20
